Time;durP1;ratioP1;P1;durP2;ratioP2;P2;SDS_P1;SDS_P2;PMS_P1;PMS_P2;Temp;Humidity;BMP_temperature;BMP_pressure;BME280_temperature;BME280_humidity;BME280_pressure;Samples;Min_cycle;Max_cycle;Signal;HPM_P1;HPM_P2
2023/12/02 00:01:33;;;;;;;22.83;14.90;;;;;;;-2.94;100.00;100848.91;5037754;28;20037;-64
2023/12/02 00:03:59;;;;;;;21.87;14.17;;;;;;;-2.95;100.00;100837.88;5043477;28;20047;-62
2023/12/02 00:06:24;;;;;;;23.50;13.77;;;;;;;-2.95;100.00;100837.00;5045752;28;20074;-62
2023/12/02 00:08:49;;;;;;;22.03;13.67;;;;;;;-2.94;100.00;100833.69;5048169;28;20323;-62
2023/12/02 00:11:14;;;;;;;23.40;15.10;;;;;;;-2.94;100.00;100832.06;5044042;28;20480;-64
2023/12/02 00:13:40;;;;;;;19.87;13.50;;;;;;;-2.93;100.00;100831.28;5045930;28;20030;-63
2023/12/02 00:16:06;;;;;;;23.73;13.70;;;;;;;-2.94;100.00;100824.44;5047249;28;20461;-64
2023/12/02 00:18:31;;;;;;;22.97;14.13;;;;;;;-2.96;100.00;100835.19;5047387;28;20472;-63
2023/12/02 00:20:56;;;;;;;21.23;13.57;;;;;;;-2.97;100.00;100839.41;5045368;28;20091;-63
2023/12/02 00:23:21;;;;;;;20.43;13.77;;;;;;;-2.97;100.00;100839.41;5047730;28;20407;-64
2023/12/02 00:25:47;;;;;;;20.30;13.23;;;;;;;-2.98;100.00;100840.16;5039770;28;20028;-63
2023/12/02 00:28:12;;;;;;;22.17;14.03;;;;;;;-2.97;100.00;100830.91;5051592;28;20507;-64
2023/12/02 00:30:37;;;;;;;21.40;14.07;;;;;;;-2.96;100.00;100835.19;5047934;28;20074;-64
2023/12/02 00:33:02;;;;;;;21.03;14.40;;;;;;;-2.95;100.00;100850.56;5047485;28;20036;-63
2023/12/02 00:35:28;;;;;;;23.57;14.77;;;;;;;-2.95;100.00;100837.00;5046184;28;20461;-63
2023/12/02 00:37:53;;;;;;;20.73;13.90;;;;;;;-2.95;100.00;100839.53;5047958;28;20027;-64
2023/12/02 00:40:18;;;;;;;21.63;14.60;;;;;;;-2.97;100.00;100848.66;5045001;28;20029;-63
2023/12/02 00:42:44;;;;;;;20.97;13.70;;;;;;;-3.00;100.00;100846.72;5028975;28;20425;-64
2023/12/02 00:45:09;;;;;;;19.30;13.40;;;;;;;-3.01;100.00;100842.44;5056296;28;20052;-63
2023/12/02 00:47:34;;;;;;;22.13;14.30;;;;;;;-3.01;100.00;100850.03;5047228;28;20029;-63
2023/12/02 00:50:00;;;;;;;18.97;13.20;;;;;;;-3.03;100.00;100846.47;5036461;28;20025;-63
2023/12/02 00:52:25;;;;;;;20.47;13.33;;;;;;;-3.04;100.00;100842.16;5048699;28;20061;-64
2023/12/02 00:54:51;;;;;;;21.83;13.77;;;;;;;-3.04;100.00;100844.69;5045357;28;20021;-62
2023/12/02 00:57:16;;;;;;;20.53;13.93;;;;;;;-3.05;100.00;100846.34;5047281;28;20068;-64
2023/12/02 00:59:42;;;;;;;21.00;13.97;;;;;;;-3.04;100.00;100848.09;5047234;28;20094;-63
2023/12/02 01:02:07;;;;;;;21.17;13.47;;;;;;;-3.02;100.00;100850.78;5047915;28;20172;-64
2023/12/02 01:04:33;;;;;;;20.57;14.30;;;;;;;-3.05;100.00;100843.81;5051128;28;20031;-63
2023/12/02 01:06:58;;;;;;;19.47;13.63;;;;;;;-3.06;100.00;100843.66;5066882;28;20051;-64
2023/12/02 01:09:23;;;;;;;21.37;13.97;;;;;;;-3.07;100.00;100840.25;5034529;28;20025;-63
2023/12/02 01:11:48;;;;;;;22.20;13.87;;;;;;;-3.07;100.00;100839.34;5041418;28;20032;-64
2023/12/02 01:14:14;;;;;;;19.77;12.67;;;;;;;-3.08;100.00;100840.09;5048027;28;20025;-63
2023/12/02 01:16:39;;;;;;;21.43;13.13;;;;;;;-3.11;100.00;100835.66;5046960;28;20021;-63
2023/12/02 01:19:04;;;;;;;18.80;14.03;;;;;;;-3.13;100.00;100838.06;5046472;28;20104;-63
2023/12/02 01:21:30;;;;;;;19.40;13.50;;;;;;;-3.14;100.00;100827.78;5047578;28;20066;-63
2023/12/02 01:23:55;;;;;;;20.50;13.63;;;;;;;-3.20;100.00;100833.19;5048277;28;20039;-63
2023/12/02 01:26:20;;;;;;;20.77;13.53;;;;;;;-3.18;100.00;100834.22;5049025;28;20033;-63
2023/12/02 01:28:46;;;;;;;21.27;13.57;;;;;;;-3.20;100.00;100830.66;5047380;28;20060;-62
2023/12/02 01:31:11;;;;;;;21.10;13.67;;;;;;;-3.20;100.00;100830.66;5045755;28;20027;-63
2023/12/02 01:33:37;;;;;;;21.03;13.13;;;;;;;-3.21;100.00;100839.03;5045742;28;20021;-63
2023/12/02 01:36:03;;;;;;;22.00;14.13;;;;;;;-3.22;100.00;100837.25;5046939;28;20028;-63
2023/12/02 01:38:28;;;;;;;20.23;12.83;;;;;;;-3.19;100.00;100849.31;5045928;28;20068;-63
2023/12/02 01:40:53;;;;;;;21.93;13.63;;;;;;;-3.20;100.00;100850.06;5046814;28;20047;-64
2023/12/02 01:43:25;;;;;;;23.37;15.70;;;;;;;-3.20;100.00;100848.41;5044968;28;20082;-63
2023/12/02 01:45:52;;;;;;;20.63;13.53;;;;;;;-3.18;100.00;100853.63;5046377;28;20028;-63
2023/12/02 01:48:19;;;;;;;21.40;14.13;;;;;;;-3.17;100.00;100856.31;5046104;28;20119;-64
2023/12/02 01:50:45;;;;;;;22.57;13.90;;;;;;;-3.14;100.00;100863.28;5047708;28;20021;-63
2023/12/02 01:53:10;;;;;;;22.93;14.17;;;;;;;-3.13;100.00;100862.53;5046057;28;20143;-63
2023/12/02 01:55:36;;;;;;;21.27;14.07;;;;;;;-3.13;100.00;100865.94;5046363;28;20036;-62
2023/12/02 01:58:02;;;;;;;23.33;13.93;;;;;;;-3.11;100.00;100866.06;5033193;28;20025;-62
2023/12/02 02:00:27;;;;;;;22.40;13.70;;;;;;;-3.10;100.00;100866.97;5047253;28;20037;-63
2023/12/02 02:02:52;;;;;;;23.57;15.00;;;;;;;-3.12;100.00;100861.78;5029440;28;20029;-63
2023/12/02 02:05:18;;;;;;;22.00;13.77;;;;;;;-3.13;100.00;100867.63;5026738;28;20103;-63
2023/12/02 02:07:43;;;;;;;20.93;13.90;;;;;;;-3.13;100.00;100865.06;5040170;28;20388;-63
2023/12/02 02:10:09;;;;;;;21.03;13.93;;;;;;;-3.13;100.00;100867.63;5029955;28;20034;-63
2023/12/02 02:12:34;;;;;;;21.23;15.17;;;;;;;-3.12;100.00;100874.44;5047270;28;20317;-63
2023/12/02 02:15:00;;;;;;;24.57;15.53;;;;;;;-3.13;100.00;100868.47;5047468;28;20370;-63
2023/12/02 02:17:25;;;;;;;22.40;14.47;;;;;;;-3.13;100.00;100868.47;5050401;28;20148;-64
2023/12/02 02:19:50;;;;;;;22.47;14.90;;;;;;;-3.11;100.00;100870.28;5050004;28;20025;-63
2023/12/02 02:22:16;;;;;;;24.00;15.17;;;;;;;-3.11;100.00;100865.22;5049509;28;20361;-63
2023/12/02 02:24:41;;;;;;;23.40;15.43;;;;;;;-3.11;100.00;100865.22;5041180;28;20441;-63
2023/12/02 02:27:06;;;;;;;23.77;14.77;;;;;;;-3.13;100.00;100862.53;5047215;28;20024;-63
2023/12/02 02:29:32;;;;;;;25.13;16.00;;;;;;;-3.11;100.00;100862.66;5046709;28;20029;-64
2023/12/02 02:31:57;;;;;;;23.00;15.07;;;;;;;-3.11;100.00;100861.00;5040177;28;20029;-62
2023/12/02 02:34:22;;;;;;;21.60;14.53;;;;;;;-3.11;100.00;100870.28;5055039;28;20039;-64
2023/12/02 02:36:48;;;;;;;22.57;14.33;;;;;;;-3.12;100.00;100864.31;5061534;28;20028;-62
2023/12/02 02:39:13;;;;;;;22.77;15.10;;;;;;;-3.14;100.00;100869.25;5039277;28;20053;-62
2023/12/02 02:41:38;;;;;;;21.97;14.50;;;;;;;-3.14;100.00;100875.97;5038279;28;20481;-63
2023/12/02 02:44:04;;;;;;;24.17;15.97;;;;;;;-3.15;100.00;100869.13;5045769;28;20048;-63
2023/12/02 02:46:29;;;;;;;23.40;14.67;;;;;;;-3.15;100.00;100877.59;5039223;28;20433;-63
2023/12/02 02:48:55;;;;;;;24.93;14.60;;;;;;;-3.16;100.00;100873.28;5042308;28;20469;-64
2023/12/02 02:51:20;;;;;;;22.37;13.70;;;;;;;-3.14;100.00;100876.84;5062749;28;20039;-63
2023/12/02 02:53:45;;;;;;;21.17;14.20;;;;;;;-3.14;100.00;100881.03;5045828;28;20083;-63
2023/12/02 02:56:11;;;;;;;23.73;15.00;;;;;;;-3.13;100.00;100883.69;5031022;28;20481;-63
2023/12/02 02:58:36;;;;;;;21.00;13.93;;;;;;;-3.10;100.00;100892.34;5029051;28;20041;-64
2023/12/02 03:01:02;;;;;;;22.30;14.57;;;;;;;-3.09;100.00;100889.03;5043279;28;20385;-66
2023/12/02 03:03:28;;;;;;;19.70;14.03;;;;;;;-3.10;100.00;100894.88;5042817;28;20623;-63
2023/12/02 03:05:54;;;;;;;22.23;15.47;;;;;;;-3.11;100.00;100890.56;5050027;28;20087;-63
2023/12/02 03:08:20;;;;;;;24.00;14.80;;;;;;;-3.13;100.00;100888.75;5049041;28;20028;-62
2023/12/02 03:10:47;;;;;;;22.63;14.67;;;;;;;-3.11;100.00;100891.44;5045586;28;20031;-63
2023/12/02 03:13:13;;;;;;;21.87;14.43;;;;;;;-3.09;100.00;100891.56;5042688;28;20484;-63
2023/12/02 03:15:38;;;;;;;23.47;13.93;;;;;;;-3.08;100.00;100890.81;5045179;28;20112;-62
2023/12/02 03:18:04;;;;;;;21.47;13.77;;;;;;;-3.09;100.00;100904.25;5042753;28;20283;-63
2023/12/02 03:20:29;;;;;;;22.13;14.50;;;;;;;-3.11;100.00;100898.19;5049070;28;20098;-63
2023/12/02 03:22:55;;;;;;;22.20;15.03;;;;;;;-3.10;100.00;100893.22;5048882;28;20075;-63
2023/12/02 03:25:20;;;;;;;22.37;14.47;;;;;;;-3.08;100.00;100895.91;5049527;28;20041;-64
2023/12/02 03:27:45;;;;;;;22.37;14.23;;;;;;;-3.09;100.00;100900.06;5036187;28;20035;-62
2023/12/02 03:30:12;;;;;;;24.23;15.07;;;;;;;-3.10;100.00;100893.22;5035377;28;20060;-62
2023/12/02 03:32:41;;;;;;;20.33;14.20;;;;;;;-3.08;100.00;100893.38;5049959;28;20032;-64
2023/12/02 03:35:07;;;;;;;21.53;14.80;;;;;;;-3.09;100.00;100889.03;5048884;28;20029;-63
2023/12/02 03:37:32;;;;;;;22.13;14.43;;;;;;;-3.10;100.00;100893.22;5043555;28;20030;-63
2023/12/02 03:39:58;;;;;;;24.50;14.67;;;;;;;-3.10;100.00;100892.34;5055059;28;20085;-63
2023/12/02 03:42:23;;;;;;;18.77;13.33;;;;;;;-3.13;100.00;100883.69;5054424;28;20388;-63
2023/12/02 03:44:48;;;;;;;22.00;14.77;;;;;;;-3.10;100.00;100899.94;5043761;28;20457;-63
2023/12/02 03:47:14;;;;;;;22.30;14.43;;;;;;;-3.11;100.00;100891.44;5052216;28;20016;-64
2023/12/02 03:49:39;;;;;;;23.07;14.40;;;;;;;-3.10;100.00;100897.41;5056746;28;20021;-63
2023/12/02 03:52:04;;;;;;;22.77;14.70;;;;;;;-3.10;100.00;100892.34;5048396;28;20021;-64
2023/12/02 03:54:30;;;;;;;23.20;15.50;;;;;;;-3.10;100.00;100902.47;5048986;28;20029;-62
2023/12/02 03:56:55;;;;;;;23.40;14.23;;;;;;;-3.10;100.00;100918.59;5048312;28;20021;-62
2023/12/02 03:59:20;;;;;;;21.90;14.20;;;;;;;-3.11;100.00;100893.09;5048828;28;20047;-62
2023/12/02 04:01:46;;;;;;;22.60;14.10;;;;;;;-3.10;100.00;100915.16;5048771;28;20029;-63
2023/12/02 04:04:11;;;;;;;23.47;14.80;;;;;;;-3.11;100.00;100910.84;5048633;28;20032;-63
2023/12/02 04:06:36;;;;;;;17.93;13.03;;;;;;;-3.13;100.00;100908.19;5049108;28;20017;-63
2023/12/02 04:09:02;;;;;;;23.13;14.20;;;;;;;-3.16;100.00;100915.50;5046091;28;20056;-63
2023/12/02 04:11:28;;;;;;;20.73;13.27;;;;;;;-3.17;100.00;100916.25;5043392;28;20016;-63
2023/12/02 04:13:53;;;;;;;21.00;14.43;;;;;;;-3.19;100.00;100910.16;5041649;28;20496;-63
2023/12/02 04:16:18;;;;;;;20.63;14.33;;;;;;;-3.17;100.00;100916.25;5046624;28;20044;-63
2023/12/02 04:18:43;;;;;;;20.57;12.93;;;;;;;-3.20;100.00;100927.00;5046267;28;20107;-63
2023/12/02 04:21:09;;;;;;;21.50;13.97;;;;;;;-3.20;100.00;100931.22;5048853;28;20366;-63
2023/12/02 04:23:36;;;;;;;21.07;13.83;;;;;;;-3.22;100.00;100925.97;5048354;28;20056;-63
2023/12/02 04:26:01;;;;;;;21.10;14.13;;;;;;;-3.22;100.00;100937.78;5047144;28;20021;-63
2023/12/02 04:28:27;;;;;;;21.30;14.03;;;;;;;-3.23;100.00;100938.53;5049131;28;20033;-62
2023/12/02 04:30:52;;;;;;;20.53;13.23;;;;;;;-3.24;100.00;100929.16;5046469;28;20029;-63
2023/12/02 04:33:17;;;;;;;21.60;13.97;;;;;;;-3.24;100.00;100944.34;5049105;28;20122;-63
2023/12/02 04:35:43;;;;;;;18.53;12.63;;;;;;;-3.26;100.00;100937.50;5048244;28;20052;-63
2023/12/02 04:38:08;;;;;;;20.13;13.47;;;;;;;-3.25;100.00;100938.38;5050336;28;20441;-63
2023/12/02 04:40:33;;;;;;;21.97;13.97;;;;;;;-3.24;100.00;100950.31;5048100;28;20029;-64
2023/12/02 04:42:59;;;;;;;22.37;15.07;;;;;;;-3.24;100.00;100940.19;5047844;28;20036;-63
2023/12/02 04:45:24;;;;;;;19.57;14.13;;;;;;;-3.23;100.00;100936.88;5047302;28;20057;-63
2023/12/02 04:47:49;;;;;;;21.63;15.67;;;;;;;-3.26;100.00;100940.03;5046444;28;20029;-64
2023/12/02 04:50:15;;;;;;;20.30;14.27;;;;;;;-3.26;100.00;100942.56;5046356;28;20362;-63
2023/12/02 04:52:40;;;;;;;22.63;14.27;;;;;;;-3.27;100.00;100932.28;5047197;28;20032;-63
2023/12/02 04:55:06;;;;;;;24.13;14.97;;;;;;;-3.26;100.00;100931.56;5049790;28;20029;-64
2023/12/02 04:57:31;;;;;;;20.87;14.33;;;;;;;-3.25;100.00;100938.38;5054138;28;20023;-64
2023/12/02 04:59:57;;;;;;;21.80;14.83;;;;;;;-3.26;100.00;100944.22;5047664;28;20738;-63
2023/12/02 05:02:23;;;;;;;20.00;13.97;;;;;;;-3.27;100.00;100952.56;5056571;28;20090;-61
2023/12/02 05:04:49;;;;;;;21.40;14.77;;;;;;;-3.29;100.00;100949.03;5054276;28;20029;-63
2023/12/02 05:07:14;;;;;;;21.07;14.30;;;;;;;-3.28;100.00;100958.41;5031953;28;20021;-63
2023/12/02 05:09:39;;;;;;;22.20;14.83;;;;;;;-3.27;100.00;100955.09;5060419;28;20020;-63
2023/12/02 05:12:06;;;;;;;21.83;14.23;;;;;;;-3.29;100.00;100954.09;5044400;28;20436;-64
2023/12/02 05:14:31;;;;;;;17.80;12.97;;;;;;;-3.27;100.00;100961.06;5044762;28;20025;-64
2023/12/02 05:16:57;;;;;;;23.73;14.50;;;;;;;-3.24;100.00;100975.69;5057811;28;20085;-62
2023/12/02 05:19:22;;;;;;;20.13;13.97;;;;;;;-3.26;100.00;100956.91;5032974;28;20034;-64
2023/12/02 05:21:47;;;;;;;20.67;13.27;;;;;;;-3.25;100.00;100961.22;5040253;28;20067;-63
2023/12/02 05:24:13;;;;;;;22.37;15.07;;;;;;;-3.24;100.00;100973.16;5059862;28;20116;-63
2023/12/02 05:26:38;;;;;;;20.43;13.63;;;;;;;-3.22;100.00;100974.16;5058094;28;20063;-63
2023/12/02 05:29:05;;;;;;;19.60;12.87;;;;;;;-3.20;100.00;100971.78;5065459;28;20066;-63
2023/12/02 05:31:30;;;;;;;22.40;14.93;;;;;;;-3.19;100.00;100983.69;5046705;28;20030;-63
2023/12/02 05:33:56;;;;;;;23.23;14.77;;;;;;;-3.18;100.00;100977.84;5042651;28;20027;-63
2023/12/02 05:36:21;;;;;;;20.13;13.93;;;;;;;-3.19;100.00;100974.44;5028810;28;20021;-63
2023/12/02 05:38:47;;;;;;;22.03;14.57;;;;;;;-3.19;100.00;100971.00;5035823;28;20016;-63
2023/12/02 05:41:12;;;;;;;22.07;14.00;;;;;;;-3.21;100.00;100965.81;5046883;28;20460;-64
2023/12/02 05:43:38;;;;;;;20.90;13.87;;;;;;;-3.20;100.00;100965.03;5053720;28;20061;-63
2023/12/02 05:46:03;;;;;;;20.80;13.90;;;;;;;-3.17;100.00;100954.28;5048350;28;20024;-64
2023/12/02 05:48:28;;;;;;;20.93;13.37;;;;;;;-3.23;100.00;100967.31;5039580;28;20423;-64
2023/12/02 05:50:53;;;;;;;24.87;16.67;;;;;;;-3.23;100.00;100981.63;5045617;28;20048;-63
2023/12/02 05:53:19;;;;;;;19.90;14.30;;;;;;;-3.25;100.00;100973.88;5042551;28;20440;-63
2023/12/02 05:55:44;;;;;;;20.87;14.17;;;;;;;-3.27;100.00;100977.91;5046168;28;20289;-63
2023/12/02 05:58:09;;;;;;;24.43;15.23;;;;;;;-3.25;100.00;100991.63;5045730;28;20464;-64
2023/12/02 06:00:35;;;;;;;22.07;14.57;;;;;;;-3.27;100.00;100990.59;5046945;28;20040;-63
2023/12/02 06:03:01;;;;;;;20.47;14.20;;;;;;;-3.31;100.00;100994.50;5045697;28;20024;-62
2023/12/02 06:05:26;;;;;;;23.07;14.60;;;;;;;-3.32;100.00;100995.25;5048223;28;20089;-62
2023/12/02 06:07:52;;;;;;;20.27;13.60;;;;;;;-3.33;100.00;101000.19;5046839;28;20067;-63
2023/12/02 06:10:17;;;;;;;21.30;15.03;;;;;;;-3.35;100.00;100997.53;5046608;28;20029;-63
2023/12/02 06:12:43;;;;;;;22.13;14.63;;;;;;;-3.36;100.00;100995.72;5048296;28;20024;-63
2023/12/02 06:15:10;;;;;;;21.87;15.03;;;;;;;-3.37;100.00;101001.56;5045364;28;20595;-63
2023/12/02 06:17:35;;;;;;;20.27;13.63;;;;;;;-3.40;100.00;100988.63;5041822;28;20036;-63
2023/12/02 06:20:01;;;;;;;19.67;12.90;;;;;;;-3.40;100.00;100994.56;5051831;28;20396;-62
2023/12/02 06:22:26;;;;;;;22.07;15.80;;;;;;;-3.41;100.00;100992.78;5047947;28;20397;-64
2023/12/02 06:24:51;;;;;;;22.50;15.03;;;;;;;-3.39;100.00;100995.44;5046807;28;20056;-63
2023/12/02 06:27:17;;;;;;;21.77;14.67;;;;;;;-3.40;100.00;100993.69;5045030;28;20033;-64
2023/12/02 06:29:42;;;;;;;22.20;14.77;;;;;;;-3.40;100.00;100997.09;5047031;28;20435;-64
2023/12/02 06:32:08;;;;;;;21.73;14.47;;;;;;;-3.40;100.00;101009.75;5046020;28;20051;-63
2023/12/02 06:34:33;;;;;;;22.50;15.63;;;;;;;-3.39;100.00;101013.19;5051055;28;20090;-63
2023/12/02 06:36:58;;;;;;;22.27;14.80;;;;;;;-3.37;100.00;101009.16;5049270;28;20045;-63
2023/12/02 06:39:24;;;;;;;23.23;15.37;;;;;;;-3.34;100.00;101017.03;5046533;28;20024;-62
2023/12/02 06:41:49;;;;;;;23.47;15.67;;;;;;;-3.35;100.00;101014.38;5050818;28;20093;-62
2023/12/02 06:44:14;;;;;;;22.20;15.70;;;;;;;-3.33;100.00;101020.47;5037908;28;20571;-63
2023/12/02 06:46:40;;;;;;;22.27;15.53;;;;;;;-3.32;100.00;101027.31;5048412;28;20028;-64
2023/12/02 06:49:05;;;;;;;24.27;15.83;;;;;;;-3.31;100.00;101031.66;5050482;28;20511;-63
2023/12/02 06:51:30;;;;;;;24.53;15.60;;;;;;;-3.31;100.00;101024.06;5055909;28;20033;-62
2023/12/02 06:53:56;;;;;;;23.60;15.20;;;;;;;-3.32;100.00;101023.16;5052210;28;20390;-63
2023/12/02 06:56:23;;;;;;;22.83;14.17;;;;;;;-3.29;100.00;101030.16;5053814;28;20388;-61
2023/12/02 06:58:49;;;;;;;22.43;15.20;;;;;;;-3.29;100.00;101031.03;5050302;28;20032;-63
2023/12/02 07:01:32;;;;;;;22.67;14.53;;;;;;;-3.30;100.00;101035.97;5040209;28;20075;-63
2023/12/02 07:04:00;;;;;;;23.13;14.70;;;;;;;-3.33;100.00;101048.34;5041906;28;20532;-63
2023/12/02 07:06:27;;;;;;;23.97;15.90;;;;;;;-3.33;100.00;101048.34;5057888;28;20525;-64
2023/12/02 07:08:53;;;;;;;21.37;14.00;;;;;;;-3.32;100.00;101058.63;5061687;28;20105;-63
2023/12/02 07:11:19;;;;;;;23.70;16.03;;;;;;;-3.30;100.00;101062.22;5042178;28;20035;-62
2023/12/02 07:13:44;;;;;;;25.23;15.53;;;;;;;-3.30;100.00;101061.31;5047810;28;20017;-63
2023/12/02 07:16:10;;;;;;;24.00;16.43;;;;;;;-3.33;100.00;101061.94;5048892;28;20074;-63
2023/12/02 07:18:35;;;;;;;21.90;15.90;;;;;;;-3.34;100.00;101067.75;5046385;28;20332;-61
2023/12/02 07:21:01;;;;;;;20.67;14.77;;;;;;;-3.33;100.00;101071.19;5047845;28;20016;-62
2023/12/02 07:23:28;;;;;;;24.53;15.80;;;;;;;-3.33;100.00;101066.09;5041414;28;20025;-63
2023/12/02 07:25:54;;;;;;;25.20;16.63;;;;;;;-3.33;100.00;101071.19;5048778;28;20032;-62
2023/12/02 07:28:19;;;;;;;25.40;16.87;;;;;;;-3.35;100.00;101076.09;5049636;28;20096;-63
2023/12/02 07:30:45;;;;;;;27.50;17.37;;;;;;;-3.39;100.00;101069.88;5049204;28;20409;-63
2023/12/02 07:33:10;;;;;;;25.27;16.43;;;;;;;-3.38;100.00;101074.16;5048024;28;20017;-61
2023/12/02 07:35:35;;;;;;;23.80;16.27;;;;;;;-3.37;100.00;101080.13;5052813;28;20025;-61
2023/12/02 07:38:01;;;;;;;26.60;16.50;;;;;;;-3.33;100.00;101077.16;5046854;28;20025;-65
2023/12/02 07:40:26;;;;;;;24.47;16.63;;;;;;;-3.31;100.00;101088.28;5052946;28;20415;-63
2023/12/02 07:42:51;;;;;;;27.23;16.87;;;;;;;-3.27;100.00;101092.00;5047555;28;20115;-62
2023/12/02 07:45:16;;;;;;;27.23;17.23;;;;;;;-3.29;100.00;101083.41;5052998;28;20433;-63
2023/12/02 07:47:42;;;;;;;28.13;17.57;;;;;;;-3.29;100.00;101083.41;5057448;28;20563;-63
2023/12/02 07:50:07;;;;;;;26.87;16.60;;;;;;;-3.35;100.00;101080.28;5052638;28;20021;-63
2023/12/02 07:52:33;;;;;;;26.03;16.30;;;;;;;-3.44;100.00;101078.69;5041736;28;20032;-63
2023/12/02 07:54:58;;;;;;;26.00;17.33;;;;;;;-3.42;100.00;101083.91;5046588;28;20025;-62
2023/12/02 07:57:23;;;;;;;27.83;16.63;;;;;;;-3.41;100.00;101099.25;5044475;28;20438;-61
2023/12/02 07:59:49;;;;;;;25.17;16.37;;;;;;;-3.36;100.00;101106.38;5051482;28;20031;-63
2023/12/02 08:02:14;;;;;;;27.10;17.50;;;;;;;-3.34;100.00;101104.88;5048678;28;20040;-63
2023/12/02 08:04:39;;;;;;;28.13;17.87;;;;;;;-3.32;100.00;101108.44;5041426;28;20383;-63
2023/12/02 08:07:04;;;;;;;27.57;17.50;;;;;;;-3.32;100.00;101118.56;5043176;28;20079;-63
2023/12/02 08:09:30;;;;;;;25.80;16.50;;;;;;;-3.32;100.00;101118.56;5046597;28;20358;-64
2023/12/02 08:11:55;;;;;;;25.67;16.93;;;;;;;-3.30;100.00;101112.00;5053516;28;20074;-61
2023/12/02 08:14:20;;;;;;;28.37;18.20;;;;;;;-3.31;100.00;101115.31;5052896;28;20032;-63
2023/12/02 08:16:46;;;;;;;27.07;17.20;;;;;;;-3.32;100.00;101116.03;5046624;28;20060;-63
2023/12/02 08:19:11;;;;;;;27.50;17.00;;;;;;;-3.34;100.00;101127.69;5050528;28;20231;-63
2023/12/02 08:21:36;;;;;;;26.37;17.00;;;;;;;-3.31;100.00;101130.53;5056438;28;20392;-63
2023/12/02 08:24:01;;;;;;;33.50;19.13;;;;;;;-3.28;100.00;101125.72;5037472;28;20028;-63
2023/12/02 08:26:27;;;;;;;28.07;17.50;;;;;;;-3.24;100.00;101122.75;5048487;28;20056;-63
2023/12/02 08:28:52;;;;;;;25.07;16.10;;;;;;;-3.19;100.00;101131.66;5047926;28;20026;-63
2023/12/02 08:31:17;;;;;;;27.00;18.00;;;;;;;-3.14;100.00;101140.56;5048308;28;20423;-61
2023/12/02 08:33:42;;;;;;;27.40;17.27;;;;;;;-3.06;100.00;101137.84;5047129;28;20032;-62
2023/12/02 08:36:08;;;;;;;26.43;17.50;;;;;;;-3.00;100.00;101143.47;5041501;28;20025;-64
2023/12/02 08:38:34;;;;;;;24.83;16.83;;;;;;;-2.94;100.00;101141.50;5044736;28;20025;-64
2023/12/02 08:40:59;;;;;;;31.00;17.80;;;;;;;-2.88;100.00;101143.72;5037381;28;20029;-64
2023/12/02 08:43:24;;;;;;;26.37;16.23;;;;;;;-2.83;100.00;101146.66;5050454;28;20055;-63
2023/12/02 08:45:49;;;;;;;30.93;17.73;;;;;;;-2.78;100.00;101146.34;5042147;28;20029;-64
2023/12/02 08:48:15;;;;;;;26.30;17.30;;;;;;;-2.73;100.00;101164.50;5059597;28;20068;-64
2023/12/02 08:50:40;;;;;;;26.47;17.20;;;;;;;-2.72;100.00;101156.16;5058511;28;20501;-63
2023/12/02 08:53:07;;;;;;;25.77;16.70;;;;;;;-2.69;100.00;101155.53;5051081;28;20045;-63
2023/12/02 08:55:33;;;;;;;25.47;17.30;;;;;;;-2.68;100.00;101170.03;5046709;28;20507;-64
2023/12/02 08:57:58;;;;;;;25.40;17.30;;;;;;;-2.69;100.00;101165.69;5048987;28;20346;-63
2023/12/02 09:00:23;;;;;;;26.17;16.83;;;;;;;-2.68;100.00;101164.94;5047015;28;20028;-64
2023/12/02 09:02:48;;;;;;;26.73;16.30;;;;;;;-2.70;100.00;101169.00;5056049;28;20024;-63
2023/12/02 09:05:14;;;;;;;26.87;17.23;;;;;;;-2.70;100.00;101174.94;5040458;28;20075;-64
2023/12/02 09:07:39;;;;;;;27.03;16.93;;;;;;;-2.70;100.00;101169.84;5055386;28;20491;-63
2023/12/02 09:10:05;;;;;;;25.07;16.97;;;;;;;-2.70;100.00;101177.47;5055659;28;20036;-62
2023/12/02 09:12:31;;;;;;;27.77;17.30;;;;;;;-2.69;100.00;101174.19;5055811;28;20021;-62
2023/12/02 09:15:20;;;;;;;27.67;17.83;;;;;;;-2.78;100.00;101176.78;5041383;28;20032;-63
2023/12/02 09:18:12;;;;;;;27.73;18.90;;;;;;;-2.80;100.00;101178.28;5046098;28;20037;-64
2023/12/02 09:20:47;;;;;;;;;;;;;;;-2.84;100.00;101183.81;5045520;28;20036;-66
2023/12/02 09:23:14;;;;;;;25.90;16.80;;;;;;;-2.81;100.00;101185.75;5039542;28;20000;-63
2023/12/02 09:25:40;;;;;;;26.47;16.73;;;;;;;-2.86;100.00;101172.63;5042313;28;20541;-64
2023/12/02 09:28:05;;;;;;;27.77;18.17;;;;;;;-2.84;100.00;101180.41;5045338;28;20033;-63
2023/12/02 09:30:35;;;;;;;30.90;18.60;;;;;;;-2.83;100.00;101178.03;5041161;28;20029;-64
2023/12/02 09:33:01;;;;;;;28.10;18.07;;;;;;;-2.82;100.00;101178.88;5043453;28;20706;-63
2023/12/02 09:35:27;;;;;;;28.70;19.27;;;;;;;-2.88;100.00;101181.78;5043163;28;20047;-64
2023/12/02 09:37:57;;;;;;;28.70;18.67;;;;;;;-2.90;100.00;101184.16;5049645;28;20029;-64
2023/12/02 09:40:29;;;;;;;26.38;17.55;;;;;;;-2.84;100.00;101191.44;5046837;28;20127;-63
2023/12/02 09:43:10;;;;;;;26.70;15.80;;;;;;;-2.79;100.00;101199.50;5045080;28;20028;-63
2023/12/02 09:45:54;;;;;;;27.83;17.67;;;;;;;-2.76;100.00;101194.69;5046501;28;20049;-64
2023/12/02 09:48:24;;;;;;;27.47;18.20;;;;;;;-2.69;100.00;101202.13;5045173;28;20111;-63
2023/12/02 09:51:03;;;;;;;25.83;16.43;;;;;;;-2.63;100.00;101191.63;5049441;28;20026;-64
2023/12/02 09:53:46;;;;;;;27.60;17.70;;;;;;;-2.60;100.00;101202.06;5040905;28;20028;-63
2023/12/02 09:56:19;;;;;;;31.20;19.00;;;;;;;-2.59;100.00;101205.50;5046333;28;20029;-64
2023/12/02 09:58:46;;;;;;;31.73;19.40;;;;;;;-2.59;100.00;101197.88;5054863;28;20021;-63
2023/12/02 10:01:32;;;;;;;30.47;19.17;;;;;;;-2.60;100.00;101196.97;5046576;28;20419;-64
2023/12/02 10:04:20;;;;;;;29.17;18.07;;;;;;;-2.55;100.00;101197.38;5031359;28;20222;-63
2023/12/02 10:07:03;;;;;;;27.20;18.20;;;;;;;-2.56;100.00;101193.06;5036488;28;20378;-64
2023/12/02 10:09:57;;;;;;;31.23;18.57;;;;;;;-2.50;100.00;101198.69;5042632;28;20028;-63
2023/12/02 10:12:35;;;;;;;31.50;19.30;;;;;;;-2.42;100.00;101197.75;5043183;28;20025;-63
2023/12/02 10:15:05;;;;;;;27.57;18.63;;;;;;;-2.36;100.00;101199.97;5043346;28;20359;-62
2023/12/02 10:17:37;;;;;;;28.97;18.73;;;;;;;-2.31;100.00;101200.38;5038909;28;20029;-63
2023/12/02 10:20:11;;;;;;;26.67;18.17;;;;;;;-2.30;100.00;101200.50;5056015;28;20434;-64
2023/12/02 10:22:49;;;;;;;28.23;18.73;;;;;;;-2.29;100.00;101198.88;5050113;28;20035;-64
2023/12/02 10:25:46;;;;;;;28.63;18.30;;;;;;;-2.19;100.00;101198.94;5047761;28;20029;-64
2023/12/02 10:28:19;;;;;;;27.73;18.37;;;;;;;-2.07;100.00;101195.72;5038827;28;20028;-63
2023/12/02 10:30:50;;;;;;;26.87;17.40;;;;;;;-1.99;100.00;101194.72;5047483;28;20116;-63
2023/12/02 10:33:25;;;;;;;;;;;;;;;-1.91;100.00;101203.03;5051024;28;20025;-64
2023/12/02 10:35:58;;;;;;;29.87;18.03;;;;;;;-1.83;100.00;101206.25;5043823;28;19916;-64
2023/12/02 10:38:30;;;;;;;28.10;18.60;;;;;;;-1.78;100.00;101205.00;5043647;28;20035;-64
2023/12/02 10:41:22;;;;;;;29.17;18.20;;;;;;;-1.75;100.00;101209.47;5045358;28;20029;-64
2023/12/02 10:43:54;;;;;;;25.90;16.97;;;;;;;-1.70;100.00;101211.66;5054261;28;20049;-64
2023/12/02 10:46:22;;;;;;;27.57;17.37;;;;;;;-1.69;100.00;101218.50;5031343;28;20026;-63
2023/12/02 10:48:47;;;;;;;26.87;17.97;;;;;;;-1.68;100.00;101201.63;5044555;28;20047;-63
2023/12/02 10:51:13;;;;;;;26.40;18.33;;;;;;;-1.66;100.00;101209.38;5051460;28;20376;-64
2023/12/02 10:53:42;;;;;;;30.07;19.13;;;;;;;-1.63;100.00;101204.56;5048607;28;20560;-64
2023/12/02 10:56:16;;;;;;;28.07;18.70;;;;;;;-1.61;100.00;101208.13;5047472;28;20531;-62
2023/12/02 10:58:45;;;;;;;25.93;17.33;;;;;;;-1.56;100.00;101217.03;5046992;28;20021;-62
2023/12/02 11:01:10;;;;;;;29.07;19.53;;;;;;;-1.52;100.00;101211.47;5048803;28;20031;-62